sensor_id;sensor_type;location;lat;lon;timestamp;temperature;humidity
19755;DHT22;10036;47.812;9.274;2023-04-03T00:01:27;5.00;99.90
19755;DHT22;10036;47.812;9.274;2023-04-03T00:03:54;5.00;99.90
19755;DHT22;10036;47.812;9.274;2023-04-03T00:06:22;4.90;99.90
19755;DHT22;10036;47.812;9.274;2023-04-03T00:08:49;5.00;99.90
19755;DHT22;10036;47.812;9.274;2023-04-03T00:11:16;5.00;99.90
19755;DHT22;10036;47.812;9.274;2023-04-03T00:13:45;4.90;99.90
19755;DHT22;10036;47.812;9.274;2023-04-03T00:16:12;4.90;99.90
19755;DHT22;10036;47.812;9.274;2023-04-03T00:18:39;4.80;99.90
19755;DHT22;10036;47.812;9.274;2023-04-03T00:21:07;5.00;99.90
19755;DHT22;10036;47.812;9.274;2023-04-03T00:23:34;4.90;99.90
19755;DHT22;10036;47.812;9.274;2023-04-03T00:26:01;4.80;99.90
19755;DHT22;10036;47.812;9.274;2023-04-03T00:28:28;4.80;99.90
19755;DHT22;10036;47.812;9.274;2023-04-03T00:30:57;4.80;99.90
19755;DHT22;10036;47.812;9.274;2023-04-03T00:33:24;4.70;99.90
19755;DHT22;10036;47.812;9.274;2023-04-03T00:35:51;4.80;99.90
19755;DHT22;10036;47.812;9.274;2023-04-03T00:38:18;4.80;99.90
19755;DHT22;10036;47.812;9.274;2023-04-03T00:40:48;4.70;99.90
19755;DHT22;10036;47.812;9.274;2023-04-03T00:43:17;4.70;99.90
19755;DHT22;10036;47.812;9.274;2023-04-03T00:45:46;4.80;99.90
19755;DHT22;10036;47.812;9.274;2023-04-03T00:48:18;4.80;99.90
19755;DHT22;10036;47.812;9.274;2023-04-03T00:50:46;4.70;99.90
19755;DHT22;10036;47.812;9.274;2023-04-03T00:53:16;4.70;99.90
19755;DHT22;10036;47.812;9.274;2023-04-03T00:55:46;4.70;99.90
19755;DHT22;10036;47.812;9.274;2023-04-03T00:58:14;4.80;99.90
19755;DHT22;10036;47.812;9.274;2023-04-03T01:00:45;4.70;99.90
19755;DHT22;10036;47.812;9.274;2023-04-03T01:03:14;4.70;99.90
19755;DHT22;10036;47.812;9.274;2023-04-03T01:05:41;4.80;99.90
19755;DHT22;10036;47.812;9.274;2023-04-03T01:08:08;4.70;99.90
19755;DHT22;10036;47.812;9.274;2023-04-03T01:10:35;4.70;99.90
19755;DHT22;10036;47.812;9.274;2023-04-03T01:13:17;4.70;99.90
19755;DHT22;10036;47.812;9.274;2023-04-03T01:15:45;4.80;99.90
19755;DHT22;10036;47.812;9.274;2023-04-03T01:18:11;4.80;99.90
19755;DHT22;10036;47.812;9.274;2023-04-03T01:24:00;4.70;99.90
19755;DHT22;10036;47.812;9.274;2023-04-03T01:26:29;4.70;99.90
19755;DHT22;10036;47.812;9.274;2023-04-03T01:28:58;4.80;99.90
19755;DHT22;10036;47.812;9.274;2023-04-03T01:31:28;4.80;99.90
19755;DHT22;10036;47.812;9.274;2023-04-03T01:33:59;4.80;99.90
19755;DHT22;10036;47.812;9.274;2023-04-03T01:36:28;4.80;99.90
19755;DHT22;10036;47.812;9.274;2023-04-03T01:38:55;4.80;99.90
19755;DHT22;10036;47.812;9.274;2023-04-03T01:41:23;4.80;99.90
19755;DHT22;10036;47.812;9.274;2023-04-03T01:43:51;4.70;99.90
19755;DHT22;10036;47.812;9.274;2023-04-03T01:46:18;4.70;99.90
19755;DHT22;10036;47.812;9.274;2023-04-03T01:48:45;4.60;99.90
19755;DHT22;10036;47.812;9.274;2023-04-03T01:51:14;4.60;99.90
19755;DHT22;10036;47.812;9.274;2023-04-03T01:53:41;4.50;99.90
19755;DHT22;10036;47.812;9.274;2023-04-03T01:56:08;4.50;99.90
19755;DHT22;10036;47.812;9.274;2023-04-03T01:58:36;4.40;99.90
19755;DHT22;10036;47.812;9.274;2023-04-03T02:01:03;4.40;99.90
19755;DHT22;10036;47.812;9.274;2023-04-03T02:03:30;4.30;99.90
19755;DHT22;10036;47.812;9.274;2023-04-03T02:05:57;4.20;99.90
19755;DHT22;10036;47.812;9.274;2023-04-03T02:08:25;4.10;99.90
19755;DHT22;10036;47.812;9.274;2023-04-03T02:10:52;4.10;99.90
19755;DHT22;10036;47.812;9.274;2023-04-03T02:13:19;4.00;99.90
19755;DHT22;10036;47.812;9.274;2023-04-03T02:15:46;3.90;99.90
19755;DHT22;10036;47.812;9.274;2023-04-03T02:18:13;3.90;99.90
19755;DHT22;10036;47.812;9.274;2023-04-03T02:20:40;3.90;99.90
19755;DHT22;10036;47.812;9.274;2023-04-03T02:23:07;3.80;99.90
19755;DHT22;10036;47.812;9.274;2023-04-03T02:25:36;3.70;99.90
19755;DHT22;10036;47.812;9.274;2023-04-03T02:28:03;3.70;99.90
19755;DHT22;10036;47.812;9.274;2023-04-03T02:30:29;3.80;99.90
19755;DHT22;10036;47.812;9.274;2023-04-03T02:32:56;3.80;99.90
19755;DHT22;10036;47.812;9.274;2023-04-03T02:35:23;3.80;99.90
19755;DHT22;10036;47.812;9.274;2023-04-03T02:37:50;3.80;99.90
19755;DHT22;10036;47.812;9.274;2023-04-03T02:40:17;3.90;99.90
19755;DHT22;10036;47.812;9.274;2023-04-03T02:42:46;3.80;99.90
19755;DHT22;10036;47.812;9.274;2023-04-03T02:45:12;3.90;99.90
19755;DHT22;10036;47.812;9.274;2023-04-03T02:47:39;3.90;99.90
19755;DHT22;10036;47.812;9.274;2023-04-03T02:50:07;3.90;99.90
19755;DHT22;10036;47.812;9.274;2023-04-03T02:52:34;3.80;99.90
19755;DHT22;10036;47.812;9.274;2023-04-03T02:55:01;3.80;99.90
19755;DHT22;10036;47.812;9.274;2023-04-03T02:57:29;3.80;99.90
19755;DHT22;10036;47.812;9.274;2023-04-03T02:59:57;3.90;99.90
19755;DHT22;10036;47.812;9.274;2023-04-03T03:02:24;3.80;99.90
19755;DHT22;10036;47.812;9.274;2023-04-03T03:04:51;3.80;99.90
19755;DHT22;10036;47.812;9.274;2023-04-03T03:07:17;3.90;99.90
19755;DHT22;10036;47.812;9.274;2023-04-03T03:09:44;3.90;99.90
19755;DHT22;10036;47.812;9.274;2023-04-03T03:12:11;3.90;99.90
19755;DHT22;10036;47.812;9.274;2023-04-03T03:14:38;3.80;99.90
19755;DHT22;10036;47.812;9.274;2023-04-03T03:17:07;3.90;99.90
19755;DHT22;10036;47.812;9.274;2023-04-03T03:19:34;3.80;99.90
19755;DHT22;10036;47.812;9.274;2023-04-03T03:22:01;3.80;99.90
19755;DHT22;10036;47.812;9.274;2023-04-03T03:24:28;3.80;99.90
19755;DHT22;10036;47.812;9.274;2023-04-03T03:26:55;3.80;99.90
19755;DHT22;10036;47.812;9.274;2023-04-03T03:29:22;3.70;99.90
19755;DHT22;10036;47.812;9.274;2023-04-03T03:31:49;3.60;99.90
19755;DHT22;10036;47.812;9.274;2023-04-03T03:34:17;3.50;99.90
19755;DHT22;10036;47.812;9.274;2023-04-03T03:36:44;3.60;99.90
19755;DHT22;10036;47.812;9.274;2023-04-03T03:39:12;3.50;99.90
19755;DHT22;10036;47.812;9.274;2023-04-03T03:41:39;3.40;99.90
19755;DHT22;10036;47.812;9.274;2023-04-03T03:44:06;3.40;99.90
19755;DHT22;10036;47.812;9.274;2023-04-03T03:46:33;3.40;99.90
19755;DHT22;10036;47.812;9.274;2023-04-03T03:49:00;3.30;99.90
19755;DHT22;10036;47.812;9.274;2023-04-03T03:51:28;3.30;99.90
19755;DHT22;10036;47.812;9.274;2023-04-03T03:53:55;3.40;99.90
19755;DHT22;10036;47.812;9.274;2023-04-03T03:56:22;3.30;99.90
19755;DHT22;10036;47.812;9.274;2023-04-03T03:58:49;3.30;99.90
19755;DHT22;10036;47.812;9.274;2023-04-03T04:01:16;3.30;99.90
19755;DHT22;10036;47.812;9.274;2023-04-03T04:03:43;3.30;99.90
19755;DHT22;10036;47.812;9.274;2023-04-03T04:06:10;3.30;99.90
19755;DHT22;10036;47.812;9.274;2023-04-03T04:08:39;3.20;99.90
19755;DHT22;10036;47.812;9.274;2023-04-03T04:11:06;3.30;99.90
19755;DHT22;10036;47.812;9.274;2023-04-03T04:13:33;3.40;99.90
19755;DHT22;10036;47.812;9.274;2023-04-03T04:16:00;3.40;99.90
19755;DHT22;10036;47.812;9.274;2023-04-03T04:18:27;3.40;99.90
19755;DHT22;10036;47.812;9.274;2023-04-03T04:20:54;3.40;99.90
19755;DHT22;10036;47.812;9.274;2023-04-03T04:23:21;3.30;99.90
19755;DHT22;10036;47.812;9.274;2023-04-03T04:25:49;3.30;99.90
19755;DHT22;10036;47.812;9.274;2023-04-03T04:28:17;3.40;99.90
19755;DHT22;10036;47.812;9.274;2023-04-03T04:30:44;3.40;99.90
19755;DHT22;10036;47.812;9.274;2023-04-03T04:33:11;3.40;99.90
19755;DHT22;10036;47.812;9.274;2023-04-03T04:35:41;3.30;99.90
19755;DHT22;10036;47.812;9.274;2023-04-03T04:38:08;3.20;99.90
19755;DHT22;10036;47.812;9.274;2023-04-03T04:40:35;3.40;99.90
19755;DHT22;10036;47.812;9.274;2023-04-03T04:43:04;3.40;99.90
19755;DHT22;10036;47.812;9.274;2023-04-03T04:45:31;3.50;99.90
19755;DHT22;10036;47.812;9.274;2023-04-03T04:47:58;3.30;99.90
19755;DHT22;10036;47.812;9.274;2023-04-03T04:50:25;3.30;99.90
19755;DHT22;10036;47.812;9.274;2023-04-03T04:52:52;3.30;99.90
19755;DHT22;10036;47.812;9.274;2023-04-03T04:55:19;3.30;99.90
19755;DHT22;10036;47.812;9.274;2023-04-03T04:57:46;3.30;99.90
19755;DHT22;10036;47.812;9.274;2023-04-03T05:00:15;3.30;99.90
19755;DHT22;10036;47.812;9.274;2023-04-03T05:02:43;3.40;99.90
19755;DHT22;10036;47.812;9.274;2023-04-03T05:05:09;3.30;99.90
19755;DHT22;10036;47.812;9.274;2023-04-03T05:07:36;3.40;99.90
19755;DHT22;10036;47.812;9.274;2023-04-03T05:10:04;3.40;99.90
19755;DHT22;10036;47.812;9.274;2023-04-03T05:12:32;3.30;99.90
19755;DHT22;10036;47.812;9.274;2023-04-03T05:14:59;3.20;99.90
19755;DHT22;10036;47.812;9.274;2023-04-03T05:17:27;3.30;99.90
19755;DHT22;10036;47.812;9.274;2023-04-03T05:19:55;3.30;99.90
19755;DHT22;10036;47.812;9.274;2023-04-03T05:22:22;3.40;99.90
19755;DHT22;10036;47.812;9.274;2023-04-03T05:24:49;3.40;99.90
19755;DHT22;10036;47.812;9.274;2023-04-03T05:27:15;3.30;99.90
19755;DHT22;10036;47.812;9.274;2023-04-03T05:29:43;3.30;99.90
19755;DHT22;10036;47.812;9.274;2023-04-03T05:32:10;3.30;99.90
19755;DHT22;10036;47.812;9.274;2023-04-03T05:34:39;3.30;99.90
19755;DHT22;10036;47.812;9.274;2023-04-03T05:37:06;3.20;99.90
19755;DHT22;10036;47.812;9.274;2023-04-03T05:39:33;3.40;99.90
19755;DHT22;10036;47.812;9.274;2023-04-03T05:42:00;3.30;99.90
19755;DHT22;10036;47.812;9.274;2023-04-03T05:44:26;3.30;99.90
19755;DHT22;10036;47.812;9.274;2023-04-03T05:46:53;3.40;99.90
19755;DHT22;10036;47.812;9.274;2023-04-03T05:49:20;3.30;99.90
19755;DHT22;10036;47.812;9.274;2023-04-03T05:51:49;3.40;99.90
19755;DHT22;10036;47.812;9.274;2023-04-03T05:54:19;3.40;99.90
19755;DHT22;10036;47.812;9.274;2023-04-03T05:56:48;3.50;99.90
19755;DHT22;10036;47.812;9.274;2023-04-03T05:59:15;3.50;99.90
19755;DHT22;10036;47.812;9.274;2023-04-03T06:01:42;3.50;99.90
19755;DHT22;10036;47.812;9.274;2023-04-03T06:04:09;3.50;99.90
19755;DHT22;10036;47.812;9.274;2023-04-03T06:06:44;3.50;99.90
19755;DHT22;10036;47.812;9.274;2023-04-03T06:09:13;3.50;99.90
19755;DHT22;10036;47.812;9.274;2023-04-03T06:11:41;3.60;99.90
19755;DHT22;10036;47.812;9.274;2023-04-03T06:14:09;3.60;99.90
19755;DHT22;10036;47.812;9.274;2023-04-03T06:16:36;3.70;99.90
19755;DHT22;10036;47.812;9.274;2023-04-03T06:19:03;3.70;99.90
19755;DHT22;10036;47.812;9.274;2023-04-03T06:21:31;3.70;99.90
19755;DHT22;10036;47.812;9.274;2023-04-03T06:23:58;3.70;99.90
19755;DHT22;10036;47.812;9.274;2023-04-03T06:26:27;3.80;99.90
19755;DHT22;10036;47.812;9.274;2023-04-03T06:28:54;3.80;99.90
19755;DHT22;10036;47.812;9.274;2023-04-03T06:31:21;3.70;99.90
19755;DHT22;10036;47.812;9.274;2023-04-03T06:33:48;3.80;99.90
19755;DHT22;10036;47.812;9.274;2023-04-03T06:36:18;3.80;99.90
19755;DHT22;10036;47.812;9.274;2023-04-03T06:38:47;3.80;99.90
19755;DHT22;10036;47.812;9.274;2023-04-03T06:41:14;3.80;99.90
19755;DHT22;10036;47.812;9.274;2023-04-03T06:43:44;3.90;99.90
19755;DHT22;10036;47.812;9.274;2023-04-03T06:46:15;3.90;99.90
19755;DHT22;10036;47.812;9.274;2023-04-03T06:48:43;3.90;99.90
19755;DHT22;10036;47.812;9.274;2023-04-03T06:51:17;3.90;99.90
19755;DHT22;10036;47.812;9.274;2023-04-03T06:53:45;3.90;99.90
19755;DHT22;10036;47.812;9.274;2023-04-03T06:56:12;3.90;99.90
19755;DHT22;10036;47.812;9.274;2023-04-03T06:58:40;4.10;99.90
19755;DHT22;10036;47.812;9.274;2023-04-03T07:01:09;4.10;99.90
19755;DHT22;10036;47.812;9.274;2023-04-03T07:03:37;4.20;99.90
19755;DHT22;10036;47.812;9.274;2023-04-03T07:06:04;4.20;99.90
19755;DHT22;10036;47.812;9.274;2023-04-03T07:08:33;4.20;99.90
19755;DHT22;10036;47.812;9.274;2023-04-03T07:11:00;4.40;99.90
19755;DHT22;10036;47.812;9.274;2023-04-03T07:13:27;4.40;99.90
19755;DHT22;10036;47.812;9.274;2023-04-03T07:15:54;4.40;99.90
19755;DHT22;10036;47.812;9.274;2023-04-03T07:18:23;4.40;99.90
19755;DHT22;10036;47.812;9.274;2023-04-03T07:20:50;4.50;99.90
19755;DHT22;10036;47.812;9.274;2023-04-03T07:23:18;4.50;99.90
19755;DHT22;10036;47.812;9.274;2023-04-03T07:25:46;4.50;99.90
19755;DHT22;10036;47.812;9.274;2023-04-03T07:28:14;4.50;99.90
19755;DHT22;10036;47.812;9.274;2023-04-03T07:30:44;4.40;99.90
19755;DHT22;10036;47.812;9.274;2023-04-03T07:33:12;4.50;99.90
19755;DHT22;10036;47.812;9.274;2023-04-03T07:35:42;4.60;99.90
19755;DHT22;10036;47.812;9.274;2023-04-03T07:38:09;4.90;99.90
19755;DHT22;10036;47.812;9.274;2023-04-03T07:40:36;5.00;99.90
19755;DHT22;10036;47.812;9.274;2023-04-03T07:43:06;4.90;99.90
19755;DHT22;10036;47.812;9.274;2023-04-03T07:45:34;4.90;99.90
19755;DHT22;10036;47.812;9.274;2023-04-03T07:48:02;5.00;99.90
19755;DHT22;10036;47.812;9.274;2023-04-03T07:50:29;5.00;99.90
19755;DHT22;10036;47.812;9.274;2023-04-03T07:52:59;5.10;99.90
19755;DHT22;10036;47.812;9.274;2023-04-03T07:55:26;5.10;99.90
19755;DHT22;10036;47.812;9.274;2023-04-03T07:57:53;5.00;99.90
19755;DHT22;10036;47.812;9.274;2023-04-03T08:00:21;5.10;99.90
19755;DHT22;10036;47.812;9.274;2023-04-03T08:02:49;5.10;99.90
19755;DHT22;10036;47.812;9.274;2023-04-03T08:05:20;5.10;99.90
19755;DHT22;10036;47.812;9.274;2023-04-03T08:07:48;5.20;99.90
19755;DHT22;10036;47.812;9.274;2023-04-03T08:10:23;5.30;99.90
19755;DHT22;10036;47.812;9.274;2023-04-03T08:12:55;5.40;99.90
19755;DHT22;10036;47.812;9.274;2023-04-03T08:15:25;5.40;99.90
19755;DHT22;10036;47.812;9.274;2023-04-03T08:17:52;5.40;99.90
19755;DHT22;10036;47.812;9.274;2023-04-03T08:20:21;5.60;99.90
19755;DHT22;10036;47.812;9.274;2023-04-03T08:22:53;5.40;99.90
19755;DHT22;10036;47.812;9.274;2023-04-03T08:25:29;5.10;99.90
19755;DHT22;10036;47.812;9.274;2023-04-03T08:28:01;5.20;99.90
19755;DHT22;10036;47.812;9.274;2023-04-03T08:30:30;5.30;99.90
19755;DHT22;10036;47.812;9.274;2023-04-03T08:32:57;5.30;99.90
19755;DHT22;10036;47.812;9.274;2023-04-03T08:35:26;5.40;99.90
19755;DHT22;10036;47.812;9.274;2023-04-03T08:37:53;5.60;99.90
19755;DHT22;10036;47.812;9.274;2023-04-03T08:40:20;5.60;99.90
19755;DHT22;10036;47.812;9.274;2023-04-03T08:43:00;5.60;99.90
19755;DHT22;10036;47.812;9.274;2023-04-03T08:45:38;5.60;99.90
19755;DHT22;10036;47.812;9.274;2023-04-03T08:48:12;5.80;99.90
19755;DHT22;10036;47.812;9.274;2023-04-03T08:50:41;5.70;99.90
19755;DHT22;10036;47.812;9.274;2023-04-03T08:53:14;5.60;99.90
19755;DHT22;10036;47.812;9.274;2023-04-03T08:55:43;5.60;99.90
19755;DHT22;10036;47.812;9.274;2023-04-03T08:58:15;5.60;99.90
19755;DHT22;10036;47.812;9.274;2023-04-03T09:00:46;5.70;99.90
19755;DHT22;10036;47.812;9.274;2023-04-03T09:03:16;5.70;99.90
19755;DHT22;10036;47.812;9.274;2023-04-03T09:05:47;6.00;99.90
19755;DHT22;10036;47.812;9.274;2023-04-03T09:08:22;6.20;99.90
19755;DHT22;10036;47.812;9.274;2023-04-03T09:10:57;6.40;99.90
19755;DHT22;10036;47.812;9.274;2023-04-03T09:13:33;6.60;99.90
19755;DHT22;10036;47.812;9.274;2023-04-03T09:16:04;6.60;99.90
19755;DHT22;10036;47.812;9.274;2023-04-03T09:18:42;6.60;99.90
19755;DHT22;10036;47.812;9.274;2023-04-03T09:21:19;6.40;99.90
19755;DHT22;10036;47.812;9.274;2023-04-03T09:23:50;6.30;99.90
19755;DHT22;10036;47.812;9.274;2023-04-03T09:26:21;6.50;99.90
19755;DHT22;10036;47.812;9.274;2023-04-03T09:28:52;6.30;99.90
19755;DHT22;10036;47.812;9.274;2023-04-03T09:31:23;6.50;99.90
19755;DHT22;10036;47.812;9.274;2023-04-03T09:33:53;6.30;99.90
19755;DHT22;10036;47.812;9.274;2023-04-03T09:36:40;6.40;99.90
19755;DHT22;10036;47.812;9.274;2023-04-03T09:39:12;6.50;99.90
19755;DHT22;10036;47.812;9.274;2023-04-03T09:41:40;6.50;99.90
19755;DHT22;10036;47.812;9.274;2023-04-03T09:44:21;6.70;99.90
19755;DHT22;10036;47.812;9.274;2023-04-03T09:46:49;6.90;99.90
19755;DHT22;10036;47.812;9.274;2023-04-03T09:49:17;6.90;99.90
19755;DHT22;10036;47.812;9.274;2023-04-03T09:51:45;6.80;99.90
19755;DHT22;10036;47.812;9.274;2023-04-03T09:54:36;6.70;99.90
19755;DHT22;10036;47.812;9.274;2023-04-03T09:57:09;6.60;99.90
19755;DHT22;10036;47.812;9.274;2023-04-03T09:59:46;6.80;99.90
19755;DHT22;10036;47.812;9.274;2023-04-03T10:02:30;6.80;99.90
19755;DHT22;10036;47.812;9.274;2023-04-03T10:04:59;7.00;99.90
19755;DHT22;10036;47.812;9.274;2023-04-03T10:07:32;6.90;99.90
19755;DHT22;10036;47.812;9.274;2023-04-03T10:10:02;6.80;99.90
19755;DHT22;10036;47.812;9.274;2023-04-03T10:12:33;6.80;99.90
19755;DHT22;10036;47.812;9.274;2023-04-03T10:15:02;6.90;99.90
19755;DHT22;10036;47.812;9.274;2023-04-03T10:17:40;6.70;99.90
19755;DHT22;10036;47.812;9.274;2023-04-03T10:20:26;6.70;99.90
19755;DHT22;10036;47.812;9.274;2023-04-03T10:23:05;7.00;99.90
19755;DHT22;10036;47.812;9.274;2023-04-03T10:25:43;7.10;99.90
19755;DHT22;10036;47.812;9.274;2023-04-03T10:28:18;7.10;99.90
19755;DHT22;10036;47.812;9.274;2023-04-03T10:30:51;7.20;99.90
19755;DHT22;10036;47.812;9.274;2023-04-03T10:33:36;7.30;99.90
19755;DHT22;10036;47.812;9.274;2023-04-03T10:36:12;7.20;99.90
19755;DHT22;10036;47.812;9.274;2023-04-03T10:38:51;7.10;99.90
19755;DHT22;10036;47.812;9.274;2023-04-03T10:41:25;7.30;99.90
19755;DHT22;10036;47.812;9.274;2023-04-03T10:44:08;7.10;99.90
19755;DHT22;10036;47.812;9.274;2023-04-03T10:46:43;6.90;99.90
19755;DHT22;10036;47.812;9.274;2023-04-03T10:49:22;6.60;99.90
19755;DHT22;10036;47.812;9.274;2023-04-03T10:51:58;6.40;99.90
19755;DHT22;10036;47.812;9.274;2023-04-03T10:54:32;6.30;99.90
19755;DHT22;10036;47.812;9.274;2023-04-03T10:57:07;6.20;99.90
19755;DHT22;10036;47.812;9.274;2023-04-03T10:59:38;6.30;99.90
19755;DHT22;10036;47.812;9.274;2023-04-03T11:02:16;6.50;99.90
19755;DHT22;10036;47.812;9.274;2023-04-03T11:04:47;6.80;99.90
19755;DHT22;10036;47.812;9.274;2023-04-03T11:07:17;7.00;99.90
19755;DHT22;10036;47.812;9.274;2023-04-03T11:09:49;6.90;99.90
19755;DHT22;10036;47.812;9.274;2023-04-03T11:12:21;7.00;99.90
19755;DHT22;10036;47.812;9.274;2023-04-03T11:14:50;7.00;99.90
19755;DHT22;10036;47.812;9.274;2023-04-03T11:17:28;6.80;99.90
19755;DHT22;10036;47.812;9.274;2023-04-03T11:20:02;6.70;99.90
19755;DHT22;10036;47.812;9.274;2023-04-03T11:22:33;6.70;99.90
19755;DHT22;10036;47.812;9.274;2023-04-03T11:25:05;6.70;99.90
19755;DHT22;10036;47.812;9.274;2023-04-03T11:27:37;6.90;99.90
19755;DHT22;10036;47.812;9.274;2023-04-03T11:30:12;6.90;99.90
19755;DHT22;10036;47.812;9.274;2023-04-03T11:33:00;6.80;99.90
19755;DHT22;10036;47.812;9.274;2023-04-03T11:35:30;6.60;99.90
19755;DHT22;10036;47.812;9.274;2023-04-03T11:37:59;6.60;99.90
19755;DHT22;10036;47.812;9.274;2023-04-03T11:40:29;6.70;99.90
19755;DHT22;10036;47.812;9.274;2023-04-03T11:43:05;6.90;99.90
19755;DHT22;10036;47.812;9.274;2023-04-03T11:45:38;6.90;99.90
19755;DHT22;10036;47.812;9.274;2023-04-03T11:48:44;6.90;99.90
19755;DHT22;10036;47.812;9.274;2023-04-03T11:51:40;6.90;99.90
19755;DHT22;10036;47.812;9.274;2023-04-03T11:54:43;6.90;99.90
19755;DHT22;10036;47.812;9.274;2023-04-03T11:57:46;6.60;99.90
19755;DHT22;10036;47.812;9.274;2023-04-03T12:10:17;7.00;99.90
19755;DHT22;10036;47.812;9.274;2023-04-03T12:12:56;7.00;99.90
19755;DHT22;10036;47.812;9.274;2023-04-03T12:18:59;7.00;99.90
19755;DHT22;10036;47.812;9.274;2023-04-03T12:24:49;7.10;99.90
19755;DHT22;10036;47.812;9.274;2023-04-03T12:27:30;7.30;99.90
19755;DHT22;10036;47.812;9.274;2023-04-03T12:30:14;7.40;99.90
19755;DHT22;10036;47.812;9.274;2023-04-03T12:32:50;7.40;99.90
19755;DHT22;10036;47.812;9.274;2023-04-03T12:35:24;7.40;99.90
19755;DHT22;10036;47.812;9.274;2023-04-03T12:41:21;7.40;99.90
19755;DHT22;10036;47.812;9.274;2023-04-03T12:46:48;7.10;99.90
19755;DHT22;10036;47.812;9.274;2023-04-03T12:49:30;7.10;99.90
19755;DHT22;10036;47.812;9.274;2023-04-03T12:52:00;7.10;99.90
19755;DHT22;10036;47.812;9.274;2023-04-03T12:54:30;7.10;99.90
19755;DHT22;10036;47.812;9.274;2023-04-03T12:57:12;7.20;99.90
19755;DHT22;10036;47.812;9.274;2023-04-03T12:59:41;7.00;99.90
19755;DHT22;10036;47.812;9.274;2023-04-03T13:02:21;7.00;99.90
19755;DHT22;10036;47.812;9.274;2023-04-03T13:04:50;7.10;99.90
19755;DHT22;10036;47.812;9.274;2023-04-03T13:07:22;7.10;99.90
19755;DHT22;10036;47.812;9.274;2023-04-03T13:10:03;7.10;99.90
19755;DHT22;10036;47.812;9.274;2023-04-03T13:12:30;7.00;99.90
19755;DHT22;10036;47.812;9.274;2023-04-03T13:15:01;7.00;99.90
19755;DHT22;10036;47.812;9.274;2023-04-03T13:17:30;7.00;99.90
19755;DHT22;10036;47.812;9.274;2023-04-03T13:20:10;6.90;99.90
19755;DHT22;10036;47.812;9.274;2023-04-03T13:22:43;7.00;99.90
19755;DHT22;10036;47.812;9.274;2023-04-03T13:25:15;7.10;99.90
19755;DHT22;10036;47.812;9.274;2023-04-03T13:27:43;7.10;99.90
19755;DHT22;10036;47.812;9.274;2023-04-03T13:30:26;7.10;99.90
19755;DHT22;10036;47.812;9.274;2023-04-03T13:32:54;7.00;99.90
19755;DHT22;10036;47.812;9.274;2023-04-03T13:35:35;7.10;99.90
19755;DHT22;10036;47.812;9.274;2023-04-03T13:38:06;7.00;99.90
19755;DHT22;10036;47.812;9.274;2023-04-03T13:40:35;7.00;99.90
19755;DHT22;10036;47.812;9.274;2023-04-03T13:43:18;7.20;99.90
19755;DHT22;10036;47.812;9.274;2023-04-03T13:49:19;7.20;99.90
19755;DHT22;10036;47.812;9.274;2023-04-03T13:51:46;7.10;99.90
19755;DHT22;10036;47.812;9.274;2023-04-03T13:54:19;7.10;99.90
19755;DHT22;10036;47.812;9.274;2023-04-03T13:56:52;7.30;99.90
19755;DHT22;10036;47.812;9.274;2023-04-03T13:59:23;7.10;99.90
19755;DHT22;10036;47.812;9.274;2023-04-03T14:01:53;7.30;99.90
19755;DHT22;10036;47.812;9.274;2023-04-03T14:04:24;7.30;99.90
19755;DHT22;10036;47.812;9.274;2023-04-03T14:06:52;7.50;99.90
19755;DHT22;10036;47.812;9.274;2023-04-03T14:09:20;7.20;99.90
19755;DHT22;10036;47.812;9.274;2023-04-03T14:11:48;7.40;99.90
19755;DHT22;10036;47.812;9.274;2023-04-03T14:14:19;7.50;99.90
19755;DHT22;10036;47.812;9.274;2023-04-03T14:16:50;7.50;99.90
19755;DHT22;10036;47.812;9.274;2023-04-03T14:19:22;7.40;99.90
19755;DHT22;10036;47.812;9.274;2023-04-03T14:21:50;7.40;99.90
19755;DHT22;10036;47.812;9.274;2023-04-03T14:24:18;7.30;99.90
19755;DHT22;10036;47.812;9.274;2023-04-03T14:26:46;7.30;99.90
19755;DHT22;10036;47.812;9.274;2023-04-03T14:29:14;7.00;99.90
19755;DHT22;10036;47.812;9.274;2023-04-03T14:31:43;7.00;99.90
19755;DHT22;10036;47.812;9.274;2023-04-03T14:34:10;7.20;99.90
19755;DHT22;10036;47.812;9.274;2023-04-03T14:36:40;7.30;99.90
19755;DHT22;10036;47.812;9.274;2023-04-03T14:39:11;7.30;99.90
19755;DHT22;10036;47.812;9.274;2023-04-03T14:41:42;7.30;99.90
19755;DHT22;10036;47.812;9.274;2023-04-03T14:44:09;7.10;99.90
19755;DHT22;10036;47.812;9.274;2023-04-03T14:46:38;7.20;99.90
19755;DHT22;10036;47.812;9.274;2023-04-03T14:49:13;7.30;99.90
19755;DHT22;10036;47.812;9.274;2023-04-03T14:51:42;7.50;99.90
19755;DHT22;10036;47.812;9.274;2023-04-03T14:54:13;7.50;99.90
19755;DHT22;10036;47.812;9.274;2023-04-03T14:56:41;7.40;99.90
19755;DHT22;10036;47.812;9.274;2023-04-03T14:59:11;7.30;99.90
19755;DHT22;10036;47.812;9.274;2023-04-03T15:01:38;7.10;99.90
19755;DHT22;10036;47.812;9.274;2023-04-03T15:04:09;7.00;99.90
19755;DHT22;10036;47.812;9.274;2023-04-03T15:06:36;7.10;99.90
19755;DHT22;10036;47.812;9.274;2023-04-03T15:09:05;7.10;99.90
19755;DHT22;10036;47.812;9.274;2023-04-03T15:11:32;7.30;99.90
19755;DHT22;10036;47.812;9.274;2023-04-03T15:13:59;7.30;99.90
19755;DHT22;10036;47.812;9.274;2023-04-03T15:16:26;7.10;99.90
19755;DHT22;10036;47.812;9.274;2023-04-03T15:18:54;7.10;99.90
19755;DHT22;10036;47.812;9.274;2023-04-03T15:21:21;7.10;99.90
19755;DHT22;10036;47.812;9.274;2023-04-03T15:23:48;7.10;99.90
19755;DHT22;10036;47.812;9.274;2023-04-03T15:26:16;6.90;99.90
19755;DHT22;10036;47.812;9.274;2023-04-03T15:28:44;6.90;99.90
19755;DHT22;10036;47.812;9.274;2023-04-03T15:31:12;6.80;99.90
19755;DHT22;10036;47.812;9.274;2023-04-03T15:33:39;6.80;99.90
19755;DHT22;10036;47.812;9.274;2023-04-03T15:36:06;6.80;99.90
19755;DHT22;10036;47.812;9.274;2023-04-03T15:38:33;6.70;99.90
19755;DHT22;10036;47.812;9.274;2023-04-03T15:41:00;6.60;99.90
19755;DHT22;10036;47.812;9.274;2023-04-03T15:43:29;6.60;99.90
19755;DHT22;10036;47.812;9.274;2023-04-03T15:45:57;6.80;99.90
19755;DHT22;10036;47.812;9.274;2023-04-03T15:48:25;6.80;99.90
19755;DHT22;10036;47.812;9.274;2023-04-03T15:50:52;6.70;99.90
19755;DHT22;10036;47.812;9.274;2023-04-03T15:53:18;6.70;99.90
19755;DHT22;10036;47.812;9.274;2023-04-03T15:55:45;6.80;99.90
19755;DHT22;10036;47.812;9.274;2023-04-03T15:58:12;6.60;99.90
19755;DHT22;10036;47.812;9.274;2023-04-03T16:00:41;6.50;99.90
19755;DHT22;10036;47.812;9.274;2023-04-03T16:03:10;6.40;99.90
19755;DHT22;10036;47.812;9.274;2023-04-03T16:05:38;6.60;99.90
19755;DHT22;10036;47.812;9.274;2023-04-03T16:08:06;6.30;99.90
19755;DHT22;10036;47.812;9.274;2023-04-03T16:10:33;6.20;99.90
19755;DHT22;10036;47.812;9.274;2023-04-03T16:13:00;6.30;99.90
19755;DHT22;10036;47.812;9.274;2023-04-03T16:15:27;6.20;99.90
19755;DHT22;10036;47.812;9.274;2023-04-03T16:17:57;6.10;99.90
19755;DHT22;10036;47.812;9.274;2023-04-03T16:20:25;6.00;99.90
19755;DHT22;10036;47.812;9.274;2023-04-03T16:22:53;5.90;99.90
19755;DHT22;10036;47.812;9.274;2023-04-03T16:25:20;6.00;99.90
19755;DHT22;10036;47.812;9.274;2023-04-03T16:27:47;5.90;99.90
19755;DHT22;10036;47.812;9.274;2023-04-03T16:30:14;6.00;99.90
19755;DHT22;10036;47.812;9.274;2023-04-03T16:32:41;5.90;99.90